sensor_id;sensor_type;location;lat;lon;timestamp;P1;durP1;ratioP1;P2;durP2;ratioP2
12910;SDS011;6523;49.758;6.120;2023-04-09T00:00:32;18.67;;;13.83;;
12910;SDS011;6523;49.758;6.120;2023-04-09T00:02:57;19.53;;;13.60;;
12910;SDS011;6523;49.758;6.120;2023-04-09T00:05:23;21.10;;;14.90;;
12910;SDS011;6523;49.758;6.120;2023-04-09T00:07:49;19.33;;;13.83;;
12910;SDS011;6523;49.758;6.120;2023-04-09T00:10:15;19.00;;;14.03;;
12910;SDS011;6523;49.758;6.120;2023-04-09T00:12:41;19.90;;;14.17;;
12910;SDS011;6523;49.758;6.120;2023-04-09T00:15:07;20.77;;;14.23;;
12910;SDS011;6523;49.758;6.120;2023-04-09T00:17:32;21.87;;;14.53;;
12910;SDS011;6523;49.758;6.120;2023-04-09T00:19:58;21.83;;;14.73;;
12910;SDS011;6523;49.758;6.120;2023-04-09T00:22:24;22.20;;;15.67;;
12910;SDS011;6523;49.758;6.120;2023-04-09T00:24:49;21.63;;;15.27;;
12910;SDS011;6523;49.758;6.120;2023-04-09T00:27:15;23.30;;;15.67;;
12910;SDS011;6523;49.758;6.120;2023-04-09T00:29:41;22.67;;;14.97;;
12910;SDS011;6523;49.758;6.120;2023-04-09T00:32:06;25.57;;;15.83;;
12910;SDS011;6523;49.758;6.120;2023-04-09T00:34:32;22.97;;;15.20;;
12910;SDS011;6523;49.758;6.120;2023-04-09T00:36:57;24.07;;;16.67;;
12910;SDS011;6523;49.758;6.120;2023-04-09T00:39:23;22.73;;;15.13;;
12910;SDS011;6523;49.758;6.120;2023-04-09T00:41:49;24.17;;;16.23;;
12910;SDS011;6523;49.758;6.120;2023-04-09T00:44:14;23.70;;;16.30;;
12910;SDS011;6523;49.758;6.120;2023-04-09T00:46:40;20.13;;;14.70;;
12910;SDS011;6523;49.758;6.120;2023-04-09T00:49:05;24.73;;;15.63;;
12910;SDS011;6523;49.758;6.120;2023-04-09T00:51:32;23.87;;;16.67;;
12910;SDS011;6523;49.758;6.120;2023-04-09T00:53:57;25.97;;;16.23;;
12910;SDS011;6523;49.758;6.120;2023-04-09T00:56:23;26.33;;;16.57;;
12910;SDS011;6523;49.758;6.120;2023-04-09T00:58:51;25.60;;;17.43;;
12910;SDS011;6523;49.758;6.120;2023-04-09T01:01:16;26.40;;;16.23;;
12910;SDS011;6523;49.758;6.120;2023-04-09T01:03:42;26.00;;;17.17;;
12910;SDS011;6523;49.758;6.120;2023-04-09T01:06:14;25.30;;;16.03;;
12910;SDS011;6523;49.758;6.120;2023-04-09T01:17:04;24.77;;;15.90;;
12910;SDS011;6523;49.758;6.120;2023-04-09T01:30:42;22.30;;;15.00;;
12910;SDS011;6523;49.758;6.120;2023-04-09T01:33:11;23.80;;;16.67;;
12910;SDS011;6523;49.758;6.120;2023-04-09T01:35:39;26.20;;;17.40;;
12910;SDS011;6523;49.758;6.120;2023-04-09T01:38:10;24.23;;;17.23;;
12910;SDS011;6523;49.758;6.120;2023-04-09T01:40:37;25.67;;;18.03;;
12910;SDS011;6523;49.758;6.120;2023-04-09T01:43:03;27.97;;;17.10;;
12910;SDS011;6523;49.758;6.120;2023-04-09T01:45:30;30.30;;;19.17;;
12910;SDS011;6523;49.758;6.120;2023-04-09T01:47:57;32.43;;;20.53;;
12910;SDS011;6523;49.758;6.120;2023-04-09T01:50:24;31.53;;;19.83;;
12910;SDS011;6523;49.758;6.120;2023-04-09T01:52:50;28.53;;;18.07;;
12910;SDS011;6523;49.758;6.120;2023-04-09T01:55:16;27.63;;;18.70;;
12910;SDS011;6523;49.758;6.120;2023-04-09T01:57:41;30.93;;;19.87;;
12910;SDS011;6523;49.758;6.120;2023-04-09T02:00:07;31.13;;;19.03;;
12910;SDS011;6523;49.758;6.120;2023-04-09T02:05:34;29.40;;;19.00;;
12910;SDS011;6523;49.758;6.120;2023-04-09T02:08:05;29.43;;;18.50;;
12910;SDS011;6523;49.758;6.120;2023-04-09T02:10:34;33.53;;;20.87;;
12910;SDS011;6523;49.758;6.120;2023-04-09T02:13:02;34.57;;;20.50;;
12910;SDS011;6523;49.758;6.120;2023-04-09T02:15:31;32.00;;;20.33;;
12910;SDS011;6523;49.758;6.120;2023-04-09T02:18:00;29.40;;;19.20;;
12910;SDS011;6523;49.758;6.120;2023-04-09T02:20:26;30.83;;;19.50;;
12910;SDS011;6523;49.758;6.120;2023-04-09T02:22:51;35.10;;;20.77;;
12910;SDS011;6523;49.758;6.120;2023-04-09T02:25:17;31.43;;;18.73;;
12910;SDS011;6523;49.758;6.120;2023-04-09T02:27:43;33.57;;;20.50;;
12910;SDS011;6523;49.758;6.120;2023-04-09T02:30:09;32.80;;;20.63;;
12910;SDS011;6523;49.758;6.120;2023-04-09T02:32:35;31.17;;;19.47;;
12910;SDS011;6523;49.758;6.120;2023-04-09T02:35:00;35.93;;;20.70;;
12910;SDS011;6523;49.758;6.120;2023-04-09T02:37:26;28.87;;;19.13;;
12910;SDS011;6523;49.758;6.120;2023-04-09T02:39:51;34.67;;;19.87;;
12910;SDS011;6523;49.758;6.120;2023-04-09T02:42:17;28.70;;;19.47;;
12910;SDS011;6523;49.758;6.120;2023-04-09T02:44:42;31.63;;;19.73;;
12910;SDS011;6523;49.758;6.120;2023-04-09T02:47:08;30.77;;;20.40;;
12910;SDS011;6523;49.758;6.120;2023-04-09T02:49:34;33.63;;;20.30;;
12910;SDS011;6523;49.758;6.120;2023-04-09T02:51:59;30.87;;;18.70;;
12910;SDS011;6523;49.758;6.120;2023-04-09T02:54:25;30.90;;;20.33;;
12910;SDS011;6523;49.758;6.120;2023-04-09T02:56:50;29.40;;;17.90;;
12910;SDS011;6523;49.758;6.120;2023-04-09T02:59:16;31.43;;;20.13;;
12910;SDS011;6523;49.758;6.120;2023-04-09T03:01:41;33.83;;;20.90;;
12910;SDS011;6523;49.758;6.120;2023-04-09T03:04:07;31.43;;;19.60;;
12910;SDS011;6523;49.758;6.120;2023-04-09T03:06:32;36.93;;;21.13;;
12910;SDS011;6523;49.758;6.120;2023-04-09T03:08:58;32.17;;;20.37;;
12910;SDS011;6523;49.758;6.120;2023-04-09T03:11:24;34.90;;;20.97;;
12910;SDS011;6523;49.758;6.120;2023-04-09T03:13:49;31.57;;;20.40;;
12910;SDS011;6523;49.758;6.120;2023-04-09T03:16:15;32.80;;;20.07;;
12910;SDS011;6523;49.758;6.120;2023-04-09T03:18:40;33.90;;;20.20;;
12910;SDS011;6523;49.758;6.120;2023-04-09T03:21:06;33.27;;;21.77;;
12910;SDS011;6523;49.758;6.120;2023-04-09T03:23:33;37.50;;;22.17;;
12910;SDS011;6523;49.758;6.120;2023-04-09T03:26:08;37.10;;;21.97;;
12910;SDS011;6523;49.758;6.120;2023-04-09T03:28:33;33.80;;;20.93;;
12910;SDS011;6523;49.758;6.120;2023-04-09T03:30:59;34.90;;;20.40;;
12910;SDS011;6523;49.758;6.120;2023-04-09T03:33:24;36.03;;;22.67;;
12910;SDS011;6523;49.758;6.120;2023-04-09T03:35:50;34.97;;;21.40;;
12910;SDS011;6523;49.758;6.120;2023-04-09T03:38:16;37.20;;;21.97;;
12910;SDS011;6523;49.758;6.120;2023-04-09T03:40:41;36.07;;;20.73;;
12910;SDS011;6523;49.758;6.120;2023-04-09T03:43:07;40.67;;;21.87;;
12910;SDS011;6523;49.758;6.120;2023-04-09T03:45:33;41.27;;;23.17;;
12910;SDS011;6523;49.758;6.120;2023-04-09T03:47:58;33.27;;;20.63;;
12910;SDS011;6523;49.758;6.120;2023-04-09T03:50:24;32.67;;;20.60;;
12910;SDS011;6523;49.758;6.120;2023-04-09T03:52:49;38.33;;;21.47;;
12910;SDS011;6523;49.758;6.120;2023-04-09T03:55:15;38.47;;;22.67;;
12910;SDS011;6523;49.758;6.120;2023-04-09T03:57:41;36.43;;;21.93;;
12910;SDS011;6523;49.758;6.120;2023-04-09T04:00:06;37.17;;;21.80;;
12910;SDS011;6523;49.758;6.120;2023-04-09T04:02:32;31.23;;;18.63;;
12910;SDS011;6523;49.758;6.120;2023-04-09T04:04:58;33.73;;;20.17;;
12910;SDS011;6523;49.758;6.120;2023-04-09T04:07:24;41.40;;;22.77;;
12910;SDS011;6523;49.758;6.120;2023-04-09T04:09:49;34.03;;;20.53;;
12910;SDS011;6523;49.758;6.120;2023-04-09T04:12:15;37.60;;;21.13;;
12910;SDS011;6523;49.758;6.120;2023-04-09T04:14:41;33.63;;;20.03;;
12910;SDS011;6523;49.758;6.120;2023-04-09T04:17:06;36.97;;;21.50;;
12910;SDS011;6523;49.758;6.120;2023-04-09T04:19:32;38.90;;;21.87;;
12910;SDS011;6523;49.758;6.120;2023-04-09T04:21:57;39.37;;;22.40;;
12910;SDS011;6523;49.758;6.120;2023-04-09T04:24:23;42.20;;;22.43;;
12910;SDS011;6523;49.758;6.120;2023-04-09T04:26:48;39.07;;;23.17;;
12910;SDS011;6523;49.758;6.120;2023-04-09T04:29:14;38.20;;;21.43;;
12910;SDS011;6523;49.758;6.120;2023-04-09T04:31:40;38.27;;;23.70;;
12910;SDS011;6523;49.758;6.120;2023-04-09T04:34:05;40.67;;;22.70;;
12910;SDS011;6523;49.758;6.120;2023-04-09T04:36:31;37.57;;;20.47;;
12910;SDS011;6523;49.758;6.120;2023-04-09T04:38:56;39.30;;;21.73;;
12910;SDS011;6523;49.758;6.120;2023-04-09T04:41:22;38.53;;;22.20;;
12910;SDS011;6523;49.758;6.120;2023-04-09T04:43:48;36.00;;;20.57;;
12910;SDS011;6523;49.758;6.120;2023-04-09T04:46:13;35.63;;;20.87;;
12910;SDS011;6523;49.758;6.120;2023-04-09T04:48:39;40.97;;;22.73;;
12910;SDS011;6523;49.758;6.120;2023-04-09T04:51:04;38.40;;;21.20;;
12910;SDS011;6523;49.758;6.120;2023-04-09T04:53:30;35.27;;;20.63;;
12910;SDS011;6523;49.758;6.120;2023-04-09T04:55:55;41.47;;;22.33;;
12910;SDS011;6523;49.758;6.120;2023-04-09T04:58:21;36.20;;;21.50;;
12910;SDS011;6523;49.758;6.120;2023-04-09T05:00:47;39.37;;;21.83;;
12910;SDS011;6523;49.758;6.120;2023-04-09T05:03:12;40.80;;;23.10;;
12910;SDS011;6523;49.758;6.120;2023-04-09T05:05:38;39.33;;;20.53;;
12910;SDS011;6523;49.758;6.120;2023-04-09T05:08:03;36.90;;;21.00;;
12910;SDS011;6523;49.758;6.120;2023-04-09T05:10:29;36.20;;;20.33;;
12910;SDS011;6523;49.758;6.120;2023-04-09T05:12:55;32.07;;;20.13;;
12910;SDS011;6523;49.758;6.120;2023-04-09T05:15:20;34.53;;;19.23;;
12910;SDS011;6523;49.758;6.120;2023-04-09T05:17:46;29.43;;;17.83;;
12910;SDS011;6523;49.758;6.120;2023-04-09T05:20:11;36.33;;;20.43;;
12910;SDS011;6523;49.758;6.120;2023-04-09T05:22:37;37.57;;;21.83;;
12910;SDS011;6523;49.758;6.120;2023-04-09T05:25:02;38.63;;;22.63;;
12910;SDS011;6523;49.758;6.120;2023-04-09T05:27:28;37.73;;;22.00;;
12910;SDS011;6523;49.758;6.120;2023-04-09T05:29:54;35.83;;;20.43;;
12910;SDS011;6523;49.758;6.120;2023-04-09T05:32:19;38.30;;;22.50;;
12910;SDS011;6523;49.758;6.120;2023-04-09T05:34:45;41.43;;;22.80;;
12910;SDS011;6523;49.758;6.120;2023-04-09T05:37:11;40.60;;;22.03;;
12910;SDS011;6523;49.758;6.120;2023-04-09T05:39:37;41.50;;;22.93;;
12910;SDS011;6523;49.758;6.120;2023-04-09T05:42:02;40.03;;;22.03;;
12910;SDS011;6523;49.758;6.120;2023-04-09T05:44:28;36.17;;;20.03;;
12910;SDS011;6523;49.758;6.120;2023-04-09T05:46:53;33.40;;;19.70;;
12910;SDS011;6523;49.758;6.120;2023-04-09T05:49:19;34.50;;;20.20;;
12910;SDS011;6523;49.758;6.120;2023-04-09T05:51:44;40.33;;;22.20;;
12910;SDS011;6523;49.758;6.120;2023-04-09T05:54:10;37.93;;;21.77;;
12910;SDS011;6523;49.758;6.120;2023-04-09T05:56:36;37.67;;;21.67;;
12910;SDS011;6523;49.758;6.120;2023-04-09T05:59:01;38.47;;;19.40;;
12910;SDS011;6523;49.758;6.120;2023-04-09T06:01:27;36.23;;;19.33;;
12910;SDS011;6523;49.758;6.120;2023-04-09T06:03:53;33.83;;;20.07;;
12910;SDS011;6523;49.758;6.120;2023-04-09T06:06:19;38.40;;;20.50;;
12910;SDS011;6523;49.758;6.120;2023-04-09T06:08:45;34.70;;;20.87;;
12910;SDS011;6523;49.758;6.120;2023-04-09T06:11:10;35.87;;;20.73;;
12910;SDS011;6523;49.758;6.120;2023-04-09T06:13:37;39.03;;;21.27;;
12910;SDS011;6523;49.758;6.120;2023-04-09T06:16:04;37.17;;;22.07;;
12910;SDS011;6523;49.758;6.120;2023-04-09T06:18:33;43.80;;;23.03;;
12910;SDS011;6523;49.758;6.120;2023-04-09T06:21:05;40.10;;;22.17;;
12910;SDS011;6523;49.758;6.120;2023-04-09T06:23:31;40.60;;;22.73;;
12910;SDS011;6523;49.758;6.120;2023-04-09T06:25:58;43.10;;;23.10;;
12910;SDS011;6523;49.758;6.120;2023-04-09T06:28:24;43.40;;;23.43;;
12910;SDS011;6523;49.758;6.120;2023-04-09T06:30:50;44.07;;;24.23;;
12910;SDS011;6523;49.758;6.120;2023-04-09T06:33:17;39.47;;;22.60;;
12910;SDS011;6523;49.758;6.120;2023-04-09T06:35:43;43.83;;;24.20;;
12910;SDS011;6523;49.758;6.120;2023-04-09T06:38:08;43.77;;;24.73;;
12910;SDS011;6523;49.758;6.120;2023-04-09T06:40:36;45.20;;;25.07;;
12910;SDS011;6523;49.758;6.120;2023-04-09T06:43:02;44.67;;;24.13;;
12910;SDS011;6523;49.758;6.120;2023-04-09T06:45:28;45.40;;;24.83;;
12910;SDS011;6523;49.758;6.120;2023-04-09T06:47:55;46.60;;;24.87;;
12910;SDS011;6523;49.758;6.120;2023-04-09T06:50:20;50.67;;;26.80;;
12910;SDS011;6523;49.758;6.120;2023-04-09T06:52:46;53.60;;;28.10;;
12910;SDS011;6523;49.758;6.120;2023-04-09T06:55:11;55.80;;;28.40;;
12910;SDS011;6523;49.758;6.120;2023-04-09T06:57:37;49.90;;;26.73;;
12910;SDS011;6523;49.758;6.120;2023-04-09T07:00:03;58.43;;;29.87;;
12910;SDS011;6523;49.758;6.120;2023-04-09T07:02:29;51.27;;;29.27;;
12910;SDS011;6523;49.758;6.120;2023-04-09T07:04:55;54.43;;;30.17;;
12910;SDS011;6523;49.758;6.120;2023-04-09T07:07:20;58.63;;;31.30;;
12910;SDS011;6523;49.758;6.120;2023-04-09T07:09:47;62.37;;;30.30;;
12910;SDS011;6523;49.758;6.120;2023-04-09T07:12:12;55.27;;;29.87;;
12910;SDS011;6523;49.758;6.120;2023-04-09T07:14:38;61.30;;;31.00;;
12910;SDS011;6523;49.758;6.120;2023-04-09T07:17:04;57.07;;;30.30;;
12910;SDS011;6523;49.758;6.120;2023-04-09T07:19:29;61.07;;;30.33;;
12910;SDS011;6523;49.758;6.120;2023-04-09T07:21:55;57.37;;;29.20;;
12910;SDS011;6523;49.758;6.120;2023-04-09T07:24:21;53.40;;;29.13;;
12910;SDS011;6523;49.758;6.120;2023-04-09T07:26:46;55.33;;;29.67;;
12910;SDS011;6523;49.758;6.120;2023-04-09T07:29:12;59.70;;;31.23;;
12910;SDS011;6523;49.758;6.120;2023-04-09T07:31:39;56.67;;;30.57;;
12910;SDS011;6523;49.758;6.120;2023-04-09T07:34:05;50.90;;;28.30;;
12910;SDS011;6523;49.758;6.120;2023-04-09T07:36:31;53.40;;;29.43;;
12910;SDS011;6523;49.758;6.120;2023-04-09T07:38:56;58.33;;;30.67;;
12910;SDS011;6523;49.758;6.120;2023-04-09T07:41:22;50.87;;;27.67;;
12910;SDS011;6523;49.758;6.120;2023-04-09T07:43:47;48.87;;;26.47;;
12910;SDS011;6523;49.758;6.120;2023-04-09T07:46:19;46.90;;;27.50;;
12910;SDS011;6523;49.758;6.120;2023-04-09T07:48:45;50.00;;;27.20;;
12910;SDS011;6523;49.758;6.120;2023-04-09T07:51:11;43.50;;;26.07;;
12910;SDS011;6523;49.758;6.120;2023-04-09T07:53:36;48.73;;;25.93;;
12910;SDS011;6523;49.758;6.120;2023-04-09T07:56:02;45.57;;;25.70;;
12910;SDS011;6523;49.758;6.120;2023-04-09T07:58:28;47.33;;;26.93;;
12910;SDS011;6523;49.758;6.120;2023-04-09T08:00:53;43.80;;;24.80;;
12910;SDS011;6523;49.758;6.120;2023-04-09T08:03:19;41.23;;;25.43;;
12910;SDS011;6523;49.758;6.120;2023-04-09T08:05:46;40.13;;;23.37;;
12910;SDS011;6523;49.758;6.120;2023-04-09T08:08:12;40.87;;;23.00;;
12910;SDS011;6523;49.758;6.120;2023-04-09T08:10:37;35.60;;;22.87;;
12910;SDS011;6523;49.758;6.120;2023-04-09T08:13:03;36.30;;;22.27;;
12910;SDS011;6523;49.758;6.120;2023-04-09T08:15:28;38.53;;;22.60;;
12910;SDS011;6523;49.758;6.120;2023-04-09T08:17:54;32.50;;;19.70;;
12910;SDS011;6523;49.758;6.120;2023-04-09T08:20:20;33.33;;;20.87;;
12910;SDS011;6523;49.758;6.120;2023-04-09T08:22:46;32.47;;;20.57;;
12910;SDS011;6523;49.758;6.120;2023-04-09T08:25:11;33.43;;;19.23;;
12910;SDS011;6523;49.758;6.120;2023-04-09T08:27:37;38.27;;;21.90;;
12910;SDS011;6523;49.758;6.120;2023-04-09T08:30:03;34.00;;;19.90;;
12910;SDS011;6523;49.758;6.120;2023-04-09T08:32:29;35.97;;;20.53;;
12910;SDS011;6523;49.758;6.120;2023-04-09T08:34:55;29.27;;;18.57;;
12910;SDS011;6523;49.758;6.120;2023-04-09T08:37:20;26.47;;;18.77;;
12910;SDS011;6523;49.758;6.120;2023-04-09T08:39:46;28.37;;;18.30;;
12910;SDS011;6523;49.758;6.120;2023-04-09T08:42:12;26.73;;;17.57;;
12910;SDS011;6523;49.758;6.120;2023-04-09T08:44:40;29.60;;;18.07;;
12910;SDS011;6523;49.758;6.120;2023-04-09T08:47:08;26.40;;;16.90;;
12910;SDS011;6523;49.758;6.120;2023-04-09T08:49:39;23.50;;;16.70;;
12910;SDS011;6523;49.758;6.120;2023-04-09T08:52:05;29.27;;;17.73;;
12910;SDS011;6523;49.758;6.120;2023-04-09T08:54:32;24.00;;;16.23;;
12910;SDS011;6523;49.758;6.120;2023-04-09T08:56:57;22.17;;;15.90;;
12910;SDS011;6523;49.758;6.120;2023-04-09T08:59:23;24.50;;;16.27;;
12910;SDS011;6523;49.758;6.120;2023-04-09T09:01:48;23.90;;;15.03;;
12910;SDS011;6523;49.758;6.120;2023-04-09T09:04:46;18.10;;;12.73;;
12910;SDS011;6523;49.758;6.120;2023-04-09T09:07:13;18.90;;;13.03;;
12910;SDS011;6523;49.758;6.120;2023-04-09T09:09:53;19.90;;;13.50;;
12910;SDS011;6523;49.758;6.120;2023-04-09T09:15:05;15.83;;;11.43;;
12910;SDS011;6523;49.758;6.120;2023-04-09T09:17:53;15.33;;;11.13;;
12910;SDS011;6523;49.758;6.120;2023-04-09T09:20:20;15.67;;;11.03;;
12910;SDS011;6523;49.758;6.120;2023-04-09T09:22:54;14.13;;;11.20;;
12910;SDS011;6523;49.758;6.120;2023-04-09T09:25:20;13.07;;;9.67;;
12910;SDS011;6523;49.758;6.120;2023-04-09T09:27:48;11.03;;;9.63;;
12910;SDS011;6523;49.758;6.120;2023-04-09T09:30:24;11.20;;;8.33;;
12910;SDS011;6523;49.758;6.120;2023-04-09T09:32:51;10.77;;;8.93;;
12910;SDS011;6523;49.758;6.120;2023-04-09T09:35:18;8.83;;;6.87;;
12910;SDS011;6523;49.758;6.120;2023-04-09T09:37:44;10.57;;;9.17;;
12910;SDS011;6523;49.758;6.120;2023-04-09T09:40:10;12.80;;;9.03;;
12910;SDS011;6523;49.758;6.120;2023-04-09T09:42:54;12.77;;;9.47;;
12910;SDS011;6523;49.758;6.120;2023-04-09T09:45:23;9.33;;;7.43;;
12910;SDS011;6523;49.758;6.120;2023-04-09T09:47:51;11.63;;;8.00;;
12910;SDS011;6523;49.758;6.120;2023-04-09T09:50:17;7.27;;;6.33;;
12910;SDS011;6523;49.758;6.120;2023-04-09T09:52:43;6.80;;;6.00;;
12910;SDS011;6523;49.758;6.120;2023-04-09T09:55:12;7.23;;;6.27;;
12910;SDS011;6523;49.758;6.120;2023-04-09T09:57:40;7.60;;;6.30;;
12910;SDS011;6523;49.758;6.120;2023-04-09T10:00:09;6.00;;;5.40;;
12910;SDS011;6523;49.758;6.120;2023-04-09T10:02:42;7.40;;;5.87;;
12910;SDS011;6523;49.758;6.120;2023-04-09T10:05:12;6.87;;;5.53;;
12910;SDS011;6523;49.758;6.120;2023-04-09T10:07:39;7.07;;;5.60;;
12910;SDS011;6523;49.758;6.120;2023-04-09T10:10:06;6.17;;;5.27;;
12910;SDS011;6523;49.758;6.120;2023-04-09T10:12:32;8.03;;;5.70;;
12910;SDS011;6523;49.758;6.120;2023-04-09T10:14:58;6.53;;;5.20;;
12910;SDS011;6523;49.758;6.120;2023-04-09T10:17:28;5.23;;;4.73;;
12910;SDS011;6523;49.758;6.120;2023-04-09T10:19:57;7.83;;;5.60;;
12910;SDS011;6523;49.758;6.120;2023-04-09T10:22:29;5.40;;;4.90;;
12910;SDS011;6523;49.758;6.120;2023-04-09T10:24:57;6.07;;;5.20;;
12910;SDS011;6523;49.758;6.120;2023-04-09T10:27:24;5.77;;;5.23;;
12910;SDS011;6523;49.758;6.120;2023-04-09T10:29:51;5.60;;;5.10;;
12910;SDS011;6523;49.758;6.120;2023-04-09T10:32:17;6.23;;;5.63;;
12910;SDS011;6523;49.758;6.120;2023-04-09T10:34:45;6.77;;;5.10;;
12910;SDS011;6523;49.758;6.120;2023-04-09T10:37:19;6.50;;;5.90;;
12910;SDS011;6523;49.758;6.120;2023-04-09T10:39:46;6.80;;;5.87;;
12910;SDS011;6523;49.758;6.120;2023-04-09T10:42:17;6.07;;;5.40;;
12910;SDS011;6523;49.758;6.120;2023-04-09T10:47:38;6.83;;;6.13;;
12910;SDS011;6523;49.758;6.120;2023-04-09T10:50:22;6.60;;;5.90;;
12910;SDS011;6523;49.758;6.120;2023-04-09T10:52:53;5.90;;;5.30;;
12910;SDS011;6523;49.758;6.120;2023-04-09T10:58:04;6.60;;;5.50;;
12910;SDS011;6523;49.758;6.120;2023-04-09T11:00:32;6.63;;;5.87;;
12910;SDS011;6523;49.758;6.120;2023-04-09T11:03:05;5.90;;;5.07;;
12910;SDS011;6523;49.758;6.120;2023-04-09T11:05:45;7.83;;;5.97;;
12910;SDS011;6523;49.758;6.120;2023-04-09T11:08:16;6.53;;;5.83;;
12910;SDS011;6523;49.758;6.120;2023-04-09T11:10:42;7.80;;;6.73;;
12910;SDS011;6523;49.758;6.120;2023-04-09T11:13:13;7.23;;;6.10;;
12910;SDS011;6523;49.758;6.120;2023-04-09T11:15:40;6.97;;;5.87;;
12910;SDS011;6523;49.758;6.120;2023-04-09T11:18:06;7.60;;;6.37;;
12910;SDS011;6523;49.758;6.120;2023-04-09T11:20:33;7.60;;;5.50;;
12910;SDS011;6523;49.758;6.120;2023-04-09T11:23:00;8.00;;;6.07;;
12910;SDS011;6523;49.758;6.120;2023-04-09T11:25:29;6.07;;;5.23;;
12910;SDS011;6523;49.758;6.120;2023-04-09T11:27:56;6.33;;;5.20;;
12910;SDS011;6523;49.758;6.120;2023-04-09T11:30:22;7.13;;;5.90;;
12910;SDS011;6523;49.758;6.120;2023-04-09T11:32:48;6.37;;;5.43;;
12910;SDS011;6523;49.758;6.120;2023-04-09T11:35:15;6.20;;;5.57;;
12910;SDS011;6523;49.758;6.120;2023-04-09T11:37:42;6.83;;;5.97;;
12910;SDS011;6523;49.758;6.120;2023-04-09T11:40:15;7.10;;;6.10;;
12910;SDS011;6523;49.758;6.120;2023-04-09T11:42:45;5.93;;;5.13;;
12910;SDS011;6523;49.758;6.120;2023-04-09T11:45:14;6.30;;;5.60;;
12910;SDS011;6523;49.758;6.120;2023-04-09T11:47:42;6.10;;;5.50;;
12910;SDS011;6523;49.758;6.120;2023-04-09T11:50:09;5.40;;;4.90;;
12910;SDS011;6523;49.758;6.120;2023-04-09T11:52:36;5.53;;;4.93;;
12910;SDS011;6523;49.758;6.120;2023-04-09T11:55:05;5.77;;;4.83;;
12910;SDS011;6523;49.758;6.120;2023-04-09T11:57:38;5.00;;;4.50;;
12910;SDS011;6523;49.758;6.120;2023-04-09T12:02:41;5.40;;;4.90;;
12910;SDS011;6523;49.758;6.120;2023-04-09T12:05:11;5.87;;;5.33;;
12910;SDS011;6523;49.758;6.120;2023-04-09T12:07:46;7.80;;;5.43;;
12910;SDS011;6523;49.758;6.120;2023-04-09T12:10:12;6.43;;;5.50;;
12910;SDS011;6523;49.758;6.120;2023-04-09T12:12:47;6.20;;;5.17;;
12910;SDS011;6523;49.758;6.120;2023-04-09T12:15:19;4.97;;;4.50;;
12910;SDS011;6523;49.758;6.120;2023-04-09T12:17:47;5.10;;;4.60;;
12910;SDS011;6523;49.758;6.120;2023-04-09T12:20:24;6.63;;;5.00;;
12910;SDS011;6523;49.758;6.120;2023-04-09T12:23:01;5.53;;;4.53;;
12910;SDS011;6523;49.758;6.120;2023-04-09T12:28:26;6.30;;;5.10;;
12910;SDS011;6523;49.758;6.120;2023-04-09T12:30:52;5.50;;;4.67;;
12910;SDS011;6523;49.758;6.120;2023-04-09T12:33:18;6.70;;;5.50;;
12910;SDS011;6523;49.758;6.120;2023-04-09T12:35:44;5.70;;;5.10;;
12910;SDS011;6523;49.758;6.120;2023-04-09T12:38:10;6.30;;;5.70;;
12910;SDS011;6523;49.758;6.120;2023-04-09T12:40:35;5.80;;;4.70;;
12910;SDS011;6523;49.758;6.120;2023-04-09T12:43:01;5.67;;;4.70;;
12910;SDS011;6523;49.758;6.120;2023-04-09T12:45:28;5.70;;;4.97;;
12910;SDS011;6523;49.758;6.120;2023-04-09T12:47:53;5.87;;;5.20;;
12910;SDS011;6523;49.758;6.120;2023-04-09T12:50:19;6.27;;;5.33;;
12910;SDS011;6523;49.758;6.120;2023-04-09T12:52:45;5.37;;;4.70;;
12910;SDS011;6523;49.758;6.120;2023-04-09T12:55:11;5.70;;;4.60;;
12910;SDS011;6523;49.758;6.120;2023-04-09T12:57:38;4.93;;;4.17;;
12910;SDS011;6523;49.758;6.120;2023-04-09T13:00:06;5.37;;;4.83;;
12910;SDS011;6523;49.758;6.120;2023-04-09T13:02:32;6.80;;;4.33;;
12910;SDS011;6523;49.758;6.120;2023-04-09T13:04:58;5.60;;;4.97;;
12910;SDS011;6523;49.758;6.120;2023-04-09T13:07:23;5.70;;;4.53;;
12910;SDS011;6523;49.758;6.120;2023-04-09T13:09:50;4.97;;;4.23;;
12910;SDS011;6523;49.758;6.120;2023-04-09T13:12:16;5.27;;;4.77;;
12910;SDS011;6523;49.758;6.120;2023-04-09T13:14:42;4.57;;;4.03;;
12910;SDS011;6523;49.758;6.120;2023-04-09T13:17:10;5.63;;;5.07;;
12910;SDS011;6523;49.758;6.120;2023-04-09T13:19:36;5.10;;;4.47;;
12910;SDS011;6523;49.758;6.120;2023-04-09T13:22:01;5.90;;;5.30;;
12910;SDS011;6523;49.758;6.120;2023-04-09T13:24:27;5.23;;;4.73;;
12910;SDS011;6523;49.758;6.120;2023-04-09T13:26:52;5.40;;;4.70;;
12910;SDS011;6523;49.758;6.120;2023-04-09T13:29:18;4.37;;;4.00;;
12910;SDS011;6523;49.758;6.120;2023-04-09T13:31:44;4.60;;;4.20;;
12910;SDS011;6523;49.758;6.120;2023-04-09T13:34:09;4.37;;;3.97;;
12910;SDS011;6523;49.758;6.120;2023-04-09T13:36:35;5.33;;;4.43;;
12910;SDS011;6523;49.758;6.120;2023-04-09T13:39:01;5.10;;;3.70;;
12910;SDS011;6523;49.758;6.120;2023-04-09T13:41:32;4.53;;;4.10;;
12910;SDS011;6523;49.758;6.120;2023-04-09T13:43:58;6.83;;;4.40;;
12910;SDS011;6523;49.758;6.120;2023-04-09T13:46:24;6.10;;;4.30;;
12910;SDS011;6523;49.758;6.120;2023-04-09T13:48:50;4.80;;;4.30;;
12910;SDS011;6523;49.758;6.120;2023-04-09T13:51:15;4.60;;;4.00;;
12910;SDS011;6523;49.758;6.120;2023-04-09T13:53:41;4.50;;;4.10;;
12910;SDS011;6523;49.758;6.120;2023-04-09T13:56:07;4.53;;;4.13;;
12910;SDS011;6523;49.758;6.120;2023-04-09T13:58:32;4.33;;;3.93;;
12910;SDS011;6523;49.758;6.120;2023-04-09T14:00:58;4.80;;;4.30;;
12910;SDS011;6523;49.758;6.120;2023-04-09T14:03:24;4.33;;;3.97;;
12910;SDS011;6523;49.758;6.120;2023-04-09T14:05:50;4.60;;;3.77;;
12910;SDS011;6523;49.758;6.120;2023-04-09T14:08:15;5.63;;;4.17;;
12910;SDS011;6523;49.758;6.120;2023-04-09T14:10:41;4.77;;;4.27;;
12910;SDS011;6523;49.758;6.120;2023-04-09T14:13:07;4.70;;;4.20;;
12910;SDS011;6523;49.758;6.120;2023-04-09T14:15:34;4.63;;;4.23;;
12910;SDS011;6523;49.758;6.120;2023-04-09T14:18:00;4.40;;;4.00;;
12910;SDS011;6523;49.758;6.120;2023-04-09T14:20:26;4.47;;;3.67;;
12910;SDS011;6523;49.758;6.120;2023-04-09T14:22:52;4.50;;;3.60;;
12910;SDS011;6523;49.758;6.120;2023-04-09T14:25:18;4.20;;;3.80;;
12910;SDS011;6523;49.758;6.120;2023-04-09T14:27:43;4.10;;;3.70;;
12910;SDS011;6523;49.758;6.120;2023-04-09T14:30:09;4.07;;;3.23;;
12910;SDS011;6523;49.758;6.120;2023-04-09T14:32:35;4.63;;;3.30;;
12910;SDS011;6523;49.758;6.120;2023-04-09T14:35:00;3.57;;;3.27;;
12910;SDS011;6523;49.758;6.120;2023-04-09T14:37:26;4.73;;;3.27;;
12910;SDS011;6523;49.758;6.120;2023-04-09T14:39:51;4.17;;;3.60;;
12910;SDS011;6523;49.758;6.120;2023-04-09T14:42:17;3.57;;;3.27;;
12910;SDS011;6523;49.758;6.120;2023-04-09T14:44:43;3.80;;;3.40;;
12910;SDS011;6523;49.758;6.120;2023-04-09T14:47:08;3.20;;;2.90;;
12910;SDS011;6523;49.758;6.120;2023-04-09T14:49:34;3.40;;;3.10;;
12910;SDS011;6523;49.758;6.120;2023-04-09T14:51:59;4.37;;;3.47;;
12910;SDS011;6523;49.758;6.120;2023-04-09T14:54:25;4.03;;;3.60;;
12910;SDS011;6523;49.758;6.120;2023-04-09T14:56:51;3.80;;;3.23;;
12910;SDS011;6523;49.758;6.120;2023-04-09T14:59:16;3.50;;;3.20;;
12910;SDS011;6523;49.758;6.120;2023-04-09T15:01:42;3.53;;;3.23;;
12910;SDS011;6523;49.758;6.120;2023-04-09T15:04:07;3.40;;;2.87;;
12910;SDS011;6523;49.758;6.120;2023-04-09T15:06:33;4.00;;;3.60;;
12910;SDS011;6523;49.758;6.120;2023-04-09T15:08:58;3.57;;;3.27;;
12910;SDS011;6523;49.758;6.120;2023-04-09T15:11:24;3.50;;;3.03;;
12910;SDS011;6523;49.758;6.120;2023-04-09T15:13:50;3.47;;;3.17;;
12910;SDS011;6523;49.758;6.120;2023-04-09T15:16:19;3.33;;;3.03;;
12910;SDS011;6523;49.758;6.120;2023-04-09T15:18:47;3.73;;;3.27;;